Time;durP1;ratioP1;P1;durP2;ratioP2;P2;SDS_P1;SDS_P2;PMS_P1;PMS_P2;Temp;Humidity;BMP_temperature;BMP_pressure;BME280_temperature;BME280_humidity;BME280_pressure;Samples;Min_cycle;Max_cycle;Signal;HPM_P1;HPM_P2
2022/07/26 00:02:18;;;;;;;2.67;1.00;;;;;;;21.29;53.50;99634.47;5097428;28;20023;-85
2022/07/26 00:04:43;;;;;;;5.43;1.10;;;;;;;21.28;53.86;99629.25;5098274;28;20279;-85
2022/07/26 00:07:08;;;;;;;2.37;1.03;;;;;;;21.26;53.92;99634.31;5097556;28;20253;-85
2022/07/26 00:09:33;;;;;;;4.22;1.30;;;;;;;21.03;54.77;99624.41;5097427;28;20339;-85
2022/07/26 00:11:59;;;;;;;3.03;1.10;;;;;;;21.17;54.48;99631.66;5095385;28;20124;-84
2022/07/26 00:14:24;;;;;;;5.75;1.45;;;;;;;21.25;54.08;99630.78;5097875;28;20322;-85
2022/07/26 00:16:49;;;;;;;3.28;0.93;;;;;;;21.21;54.43;99629.81;5097519;28;20465;-85
2022/07/26 00:19:52;;;;;;;6.95;1.70;;;;;;;21.11;54.38;99629.06;5098161;28;20072;-85
2022/07/26 00:22:55;;;;;;;4.28;1.10;;;;;;;21.05;54.93;99626.88;5095369;28;20028;-85
2022/07/26 00:25:57;;;;;;;5.95;1.17;;;;;;;20.97;55.25;99623.03;5097762;28;20031;-85
2022/07/26 00:28:23;;;;;;;3.35;1.38;;;;;;;21.03;55.12;99618.88;5097252;28;20028;-85
2022/07/26 00:30:48;;;;;;;5.47;1.10;;;;;;;21.03;55.13;99616.09;5097415;28;20506;-85
2022/07/26 00:33:13;;;;;;;2.80;0.90;;;;;;;20.99;55.43;99627.06;5097207;28;20273;-85
2022/07/26 00:35:39;;;;;;;4.30;1.30;;;;;;;20.95;55.54;99623.31;5097065;28;20110;-85
2022/07/26 00:38:04;;;;;;;5.30;1.30;;;;;;;20.76;56.27;99621.88;5096165;28;20065;-85
2022/07/26 00:40:29;;;;;;;4.35;1.00;;;;;;;20.79;56.27;99625.13;5096260;28;20247;-85
2022/07/26 00:42:55;;;;;;;10.05;2.85;;;;;;;20.76;56.37;99632.13;5096548;28;20069;-82
2022/07/26 00:45:20;;;;;;;17.75;2.58;;;;;;;20.67;56.67;99623.06;5097331;28;20024;-85
2022/07/26 00:47:45;;;;;;;4.95;1.67;;;;;;;20.69;56.55;99631.84;5097286;28;20103;-84
2022/07/26 00:50:15;;;;;;;3.78;1.75;;;;;;;20.60;57.09;99634.69;5097358;28;20020;-85
2022/07/26 00:52:45;;;;;;;5.03;1.40;;;;;;;20.58;57.05;99629.50;5098070;28;20345;-84
2022/07/26 00:55:12;;;;;;;4.25;1.38;;;;;;;20.61;56.95;99626.03;5096784;28;20449;-85
2022/07/26 00:57:38;;;;;;;7.05;2.58;;;;;;;20.42;58.18;99635.59;5096457;28;20024;-84
2022/07/26 01:00:10;;;;;;;7.80;1.85;;;;;;;20.44;57.71;99631.69;5096372;28;20130;-84
2022/07/26 01:02:35;;;;;;;6.22;1.85;;;;;;;20.42;57.61;99634.81;5096618;28;20450;-84
2022/07/26 01:05:01;;;;;;;7.72;1.50;;;;;;;20.50;57.80;99635.91;5096427;28;20050;-84
2022/07/26 01:07:27;;;;;;;9.98;1.42;;;;;;;20.45;57.52;99627.78;5096791;28;20020;-85
2022/07/26 01:09:52;;;;;;;4.28;1.20;;;;;;;20.42;57.27;99632.81;5096120;28;20024;-84
2022/07/26 01:12:18;;;;;;;4.78;1.33;;;;;;;20.32;57.90;99635.97;5096278;28;20051;-85
2022/07/26 01:14:44;;;;;;;3.85;1.20;;;;;;;20.40;57.81;99635.13;5096185;28;20024;-84
2022/07/26 01:17:10;;;;;;;5.80;1.92;;;;;;;20.33;57.95;99631.25;5096214;28;20026;-84
2022/07/26 01:19:37;;;;;;;5.05;1.77;;;;;;;20.23;58.58;99629.69;5096259;28;20379;-85
2022/07/26 01:22:02;;;;;;;5.77;1.80;;;;;;;20.28;58.39;99629.50;5096244;28;20103;-85
2022/07/26 01:24:27;;;;;;;5.25;2.10;;;;;;;20.37;57.98;99626.69;5095990;28;20251;-84
2022/07/26 01:26:54;;;;;;;4.78;1.42;;;;;;;20.33;57.83;99626.53;5094131;28;20024;-85
2022/07/26 01:29:20;;;;;;;6.15;1.98;;;;;;;20.27;58.40;99625.94;5095773;28;20040;-84
2022/07/26 01:31:45;;;;;;;4.78;1.65;;;;;;;20.10;58.91;99623.22;5096057;28;20028;-85
2022/07/26 01:34:11;;;;;;;4.88;1.70;;;;;;;20.10;58.86;99626.81;5095662;28;20034;-85
2022/07/26 01:36:36;;;;;;;5.78;2.30;;;;;;;20.08;59.04;99622.75;5095999;28;20065;-85
2022/07/26 01:39:02;;;;;;;5.88;2.08;;;;;;;20.05;59.01;99616.75;5095835;28;20031;-84
2022/07/26 01:41:27;;;;;;;6.38;1.70;;;;;;;20.08;59.03;99622.75;5095724;28;20028;-85
2022/07/26 01:43:53;;;;;;;5.25;1.50;;;;;;;20.03;59.06;99624.56;5095788;28;20456;-85
2022/07/26 01:46:18;;;;;;;5.03;2.00;;;;;;;19.88;59.68;99628.69;5096324;28;20107;-85
2022/07/26 01:48:43;;;;;;;7.32;2.25;;;;;;;20.04;59.21;99625.34;5093587;28;20024;-85
2022/07/26 01:51:09;;;;;;;8.43;2.40;;;;;;;20.13;58.84;99628.13;5095256;28;20104;-84
2022/07/26 01:53:34;;;;;;;5.33;2.07;;;;;;;20.10;58.78;99634.31;5096032;28;20028;-85
2022/07/26 01:55:59;;;;;;;20.10;2.85;;;;;;;19.97;59.44;99631.41;5095475;28;20328;-85
2022/07/26 01:58:25;;;;;;;10.35;2.45;;;;;;;19.84;59.87;99627.72;5096223;28;20035;-85
2022/07/26 02:00:50;;;;;;;6.13;1.80;;;;;;;19.82;60.54;99624.47;5095520;28;20071;-85
2022/07/26 02:03:15;;;;;;;6.55;1.83;;;;;;;19.74;60.89;99633.59;5095286;28;20026;-85
2022/07/26 02:05:41;;;;;;;7.53;2.70;;;;;;;19.87;59.85;99627.03;5096220;28;20023;-85
2022/07/26 02:08:06;;;;;;;6.63;2.03;;;;;;;19.77;60.22;99628.22;5095875;28;20240;-85
2022/07/26 02:13:16;;;;;;;11.75;2.40;;;;;;;19.73;60.77;99643.06;5095299;28;20283;-85
2022/07/26 02:15:41;;;;;;;8.07;2.88;;;;;;;19.82;60.70;99638.31;5095733;28;20040;-84
2022/07/26 02:18:06;;;;;;;6.82;1.88;;;;;;;19.78;60.75;99642.88;5095078;28;20032;-84
2022/07/26 02:20:32;;;;;;;12.55;3.08;;;;;;;19.88;60.60;99645.28;5094849;28;20067;-85
2022/07/26 02:23:01;;;;;;;4.57;1.92;;;;;;;19.96;60.36;99640.84;5095151;28;20020;-85
2022/07/26 02:25:26;;;;;;;7.43;1.52;;;;;;;20.00;60.67;99638.22;5094974;28;20032;-85
2022/07/26 02:27:52;;;;;;;16.15;2.97;;;;;;;19.89;60.48;99646.09;5095158;28;20498;-85
2022/07/26 02:30:17;;;;;;;6.35;1.67;;;;;;;19.94;60.64;99641.19;5095086;28;20020;-85
2022/07/26 02:32:42;;;;;;;5.43;1.50;;;;;;;20.14;60.07;99647.16;5094955;28;20362;-85
2022/07/26 02:35:08;;;;;;;7.40;1.97;;;;;;;20.23;59.59;99643.53;5094906;28;20106;-85
2022/07/26 02:37:34;;;;;;;8.18;2.45;;;;;;;20.20;59.68;99644.22;5094758;28;20256;-85
2022/07/26 02:40:00;;;;;;;5.93;1.58;;;;;;;20.14;60.17;99647.16;5095113;28;20027;-85
2022/07/26 02:42:26;;;;;;;4.72;1.90;;;;;;;20.11;60.50;99647.81;5095054;28;20032;-85
2022/07/26 02:44:52;;;;;;;5.00;1.60;;;;;;;20.07;60.52;99649.59;5095006;28;20043;-85
2022/07/26 02:47:18;;;;;;;5.38;1.48;;;;;;;20.07;60.61;99644.06;5095460;28;20646;-85
2022/07/26 02:49:43;;;;;;;10.80;3.03;;;;;;;20.16;59.91;99644.84;5095109;28;20047;-85
2022/07/26 02:52:08;;;;;;;6.30;1.60;;;;;;;20.11;60.35;99650.59;5094600;28;20099;-85
2022/07/26 02:54:33;;;;;;;5.50;1.07;;;;;;;20.02;60.69;99644.25;5094633;28;20245;-85
2022/07/26 02:56:59;;;;;;;6.68;2.40;;;;;;;20.02;61.03;99641.47;5094334;28;20347;-85
2022/07/26 02:59:24;;;;;;;3.28;1.17;;;;;;;20.08;60.50;99642.94;5094693;28;20101;-85
2022/07/26 03:01:49;;;;;;;10.00;1.70;;;;;;;19.99;60.90;99644.91;5094798;28;20047;-85
2022/07/26 03:04:15;;;;;;;11.77;2.10;;;;;;;20.00;60.93;99641.00;5099417;28;20352;-85
2022/07/26 03:06:40;;;;;;;5.73;1.40;;;;;;;20.00;61.16;99649.28;5098422;28;20256;-85
2022/07/26 03:09:05;;;;;;;8.13;2.37;;;;;;;19.95;61.31;99653.06;5098754;28;20252;-85
2022/07/26 03:11:30;;;;;;;4.50;1.75;;;;;;;20.10;60.92;99651.72;5098795;28;20386;-84
2022/07/26 03:13:56;;;;;;;8.30;2.10;;;;;;;20.06;61.24;99651.56;5099180;28;20044;-85
2022/07/26 03:16:21;;;;;;;6.67;1.97;;;;;;;20.04;61.30;99648.31;5098540;28;20347;-85
2022/07/26 03:18:46;;;;;;;6.57;1.90;;;;;;;20.11;61.01;99653.38;5098519;28;20724;-85
2022/07/26 03:21:11;;;;;;;3.80;1.33;;;;;;;20.14;61.25;99657.41;5099090;28;20249;-85
2022/07/26 03:23:37;;;;;;;6.00;1.93;;;;;;;20.08;62.88;99651.25;5098110;28;20067;-85
2022/07/26 03:26:03;;;;;;;2.92;1.45;;;;;;;20.12;62.66;99656.91;5098958;28;20249;-85
2022/07/26 03:28:30;;;;;;;9.85;1.70;;;;;;;20.03;62.61;99657.75;5098388;28;20040;-85
2022/07/26 03:30:55;;;;;;;6.78;2.42;;;;;;;20.12;62.94;99668.81;5098579;28;20476;-85
2022/07/26 03:33:20;;;;;;;4.80;1.83;;;;;;;19.97;62.67;99663.81;5099505;28;20024;-85
2022/07/26 03:35:46;;;;;;;5.13;1.70;;;;;;;19.94;62.90;99666.09;5099212;28;20016;-85
2022/07/26 03:38:11;;;;;;;7.37;3.67;;;;;;;20.04;63.04;99669.63;5098312;28;20024;-85
2022/07/26 03:40:36;;;;;;;7.57;1.67;;;;;;;19.93;64.09;99672.75;5098636;28;20240;-85
2022/07/26 03:43:01;;;;;;;13.70;3.13;;;;;;;19.88;65.41;99684.00;5098566;28;20803;-86
2022/07/26 03:45:28;;;;;;;18.63;5.03;;;;;;;19.66;69.66;99672.03;5098702;28;20327;-86
2022/07/26 03:47:53;;;;;;;10.85;2.55;;;;;;;19.51;70.64;99680.81;5098089;28;20107;-86
2022/07/26 03:50:18;;;;;;;13.93;3.38;;;;;;;19.21;72.43;99682.31;5097694;28;20119;-86
2022/07/26 03:52:44;;;;;;;4.90;2.40;;;;;;;19.12;73.04;99681.47;5098020;28;20107;-86
2022/07/26 03:57:53;;;;;;;8.32;2.70;;;;;;;19.00;73.80;99680.19;5098132;28;20243;-86
2022/07/26 04:00:18;;;;;;;10.60;3.37;;;;;;;19.07;73.48;99695.47;5098158;28;20110;-86
2022/07/26 04:02:43;;;;;;;8.82;2.42;;;;;;;18.99;73.71;99697.91;5098507;28;20318;-86
2022/07/26 04:05:09;;;;;;;9.55;2.60;;;;;;;19.01;74.32;99686.53;5097981;28;20077;-86
2022/07/26 04:07:43;;;;;;;9.15;2.90;;;;;;;18.95;74.27;99696.09;5098452;28;20138;-86
2022/07/26 04:10:09;;;;;;;7.60;2.97;;;;;;;18.93;75.30;99687.31;5098031;28;20337;-86
2022/07/26 04:12:35;;;;;;;9.82;3.38;;;;;;;18.85;75.46;99700.00;5098298;28;20036;-86
2022/07/26 04:15:00;;;;;;;12.40;3.88;;;;;;;18.90;75.67;99697.06;5097525;28;20024;-86
2022/07/26 04:17:25;;;;;;;11.93;2.83;;;;;;;18.88;75.15;99693.81;5097494;28;20536;-86
2022/07/26 04:19:50;;;;;;;9.65;3.08;;;;;;;18.89;75.65;99701.78;5097246;28;20339;-86
2022/07/26 04:22:16;;;;;;;7.20;1.93;;;;;;;18.91;74.29;99706.97;5097301;28;20024;-87
2022/07/26 04:24:41;;;;;;;9.47;2.93;;;;;;;18.93;75.68;99713.00;5097746;28;20244;-86
2022/07/26 04:27:06;;;;;;;7.67;2.50;;;;;;;18.87;76.01;99714.28;5097545;28;20280;-86
2022/07/26 04:29:32;;;;;;;6.32;2.95;;;;;;;18.93;75.55;99718.53;5097788;28;20252;-88
2022/07/26 04:31:57;;;;;;;7.88;2.75;;;;;;;18.96;75.00;99706.81;5097174;28;20058;-86
2022/07/26 04:34:22;;;;;;;10.07;2.57;;;;;;;19.01;74.79;99720.50;5096937;28;20032;-86
2022/07/26 04:36:47;;;;;;;7.82;2.75;;;;;;;19.00;75.45;99721.59;5097147;28;20249;-86
2022/07/26 04:39:13;;;;;;;10.60;3.33;;;;;;;19.05;75.57;99719.81;5097069;28;20016;-86
2022/07/26 04:41:38;;;;;;;8.50;2.60;;;;;;;18.89;76.75;99712.00;5097536;28;20245;-86
2022/07/26 04:44:04;;;;;;;6.03;2.93;;;;;;;19.02;75.47;99727.63;5097180;28;20028;-86
2022/07/26 04:46:29;;;;;;;9.45;2.92;;;;;;;18.97;75.30;99722.28;5096983;28;20290;-85
2022/07/26 04:48:54;;;;;;;9.10;2.40;;;;;;;18.87;76.11;99719.81;5097516;28;20024;-85
2022/07/26 04:51:19;;;;;;;7.78;2.65;;;;;;;18.91;75.84;99723.56;5096821;28;20276;-85
2022/07/26 04:53:45;;;;;;;8.10;3.03;;;;;;;18.89;76.26;99723.06;5096959;28;20383;-85
2022/07/26 04:56:10;;;;;;;7.27;2.80;;;;;;;18.94;76.02;99720.13;5097336;28;20336;-85
2022/07/26 04:58:35;;;;;;;12.38;3.30;;;;;;;19.00;76.11;99724.38;5096694;28;20276;-86
2022/07/26 05:01:01;;;;;;;12.03;3.83;;;;;;;18.91;75.73;99726.31;5096824;28;20036;-86
2022/07/26 05:03:26;;;;;;;6.63;3.08;;;;;;;18.76;77.13;99717.34;5096505;28;20574;-86
2022/07/26 05:05:52;;;;;;;10.05;3.17;;;;;;;18.82;76.19;99717.19;5096683;28;20027;-86
2022/07/26 05:08:17;;;;;;;6.20;2.30;;;;;;;18.76;75.92;99720.13;5096414;28;20020;-86
2022/07/26 05:10:43;;;;;;;6.20;2.38;;;;;;;18.78;75.39;99717.84;5096425;28;20098;-86
2022/07/26 05:13:08;;;;;;;11.13;4.10;;;;;;;18.62;77.46;99728.53;5095359;28;20130;-86
2022/07/26 05:15:38;;;;;;;11.23;2.60;;;;;;;18.92;75.92;99716.88;5096590;28;20085;-86
2022/07/26 05:18:06;;;;;;;10.07;2.80;;;;;;;18.84;76.63;99720.44;5095910;28;20048;-86
2022/07/26 05:20:32;;;;;;;7.63;3.40;;;;;;;18.81;77.17;99730.19;5097123;28;20051;-86
2022/07/26 05:22:58;;;;;;;6.55;2.50;;;;;;;18.94;76.24;99731.19;5096321;28;20024;-86
2022/07/26 05:25:23;;;;;;;8.68;3.60;;;;;;;18.97;76.56;99733.31;5095930;28;20023;-86
2022/07/26 05:27:49;;;;;;;12.00;4.40;;;;;;;19.00;75.61;99729.06;5096506;28;20105;-86
2022/07/26 05:30:14;;;;;;;13.45;3.47;;;;;;;19.06;75.48;99729.75;5096162;28;20024;-86
2022/07/26 05:32:39;;;;;;;18.77;2.92;;;;;;;19.00;76.33;99743.72;5096507;28;20111;-85
2022/07/26 05:35:06;;;;;;;10.63;3.25;;;;;;;18.96;76.80;99736.38;5094229;28;20024;-85
2022/07/26 05:37:32;;;;;;;14.07;3.28;;;;;;;19.00;76.42;99740.13;5095706;28;20031;-86
2022/07/26 05:39:57;;;;;;;9.25;3.97;;;;;;;18.91;77.49;99734.59;5095602;28;20023;-86
2022/07/26 05:42:24;;;;;;;11.23;3.40;;;;;;;19.01;76.32;99733.47;5095713;28;20020;-86
2022/07/26 05:44:49;;;;;;;12.77;3.83;;;;;;;18.99;76.44;99731.03;5096531;28;20036;-86
2022/07/26 05:47:14;;;;;;;8.47;2.37;;;;;;;18.98;75.72;99736.88;5095996;28;20139;-86
2022/07/26 05:49:40;;;;;;;14.23;3.92;;;;;;;18.92;76.32;99738.97;5095716;28;20252;-86
2022/07/26 05:52:05;;;;;;;10.23;3.13;;;;;;;19.01;76.00;99734.31;5095307;28;20024;-86
2022/07/26 05:54:30;;;;;;;9.43;3.20;;;;;;;19.04;75.21;99743.06;5095573;28;20253;-86
2022/07/26 05:56:55;;;;;;;8.43;3.60;;;;;;;19.08;75.24;99730.25;5095844;28;20255;-86
2022/07/26 05:59:21;;;;;;;16.10;4.27;;;;;;;19.20;74.95;99733.19;5095733;28;20320;-86
2022/07/26 06:01:46;;;;;;;16.65;3.15;;;;;;;18.96;75.81;99747.44;5095232;28;20237;-86
2022/07/26 06:04:12;;;;;;;7.73;3.90;;;;;;;19.16;76.07;99739.72;5096247;28;20046;-86
2022/07/26 06:06:37;;;;;;;7.20;3.67;;;;;;;19.10;75.65;99739.03;5095849;28;20280;-86
2022/07/26 06:09:03;;;;;;;10.57;3.33;;;;;;;19.06;75.99;99751.84;5095337;28;20073;-86
2022/07/26 06:11:28;;;;;;;7.70;2.38;;;;;;;19.13;76.44;99747.47;5093397;28;20299;-86
2022/07/26 06:13:53;;;;;;;12.07;4.38;;;;;;;19.20;75.35;99747.00;5095231;28;20036;-86
2022/07/26 06:16:19;;;;;;;11.20;3.30;;;;;;;19.18;75.40;99740.97;5095817;28;20031;-86
2022/07/26 06:18:44;;;;;;;8.40;3.37;;;;;;;19.33;75.03;99748.00;5095724;28;20376;-86
2022/07/26 06:21:09;;;;;;;8.30;3.63;;;;;;;19.32;74.41;99748.31;5094105;28;20624;-86
2022/07/26 06:23:35;;;;;;;12.27;4.23;;;;;;;19.39;75.22;99751.41;5098972;28;20343;-85
2022/07/26 06:26:00;;;;;;;14.50;3.92;;;;;;;19.46;74.79;99753.69;5095367;28;20640;-86
2022/07/26 06:28:26;;;;;;;11.07;4.93;;;;;;;19.63;74.69;99760.34;5095092;28;20024;-86
2022/07/26 06:30:51;;;;;;;8.33;3.67;;;;;;;19.72;74.11;99758.38;5094970;28;20023;-86
2022/07/26 06:33:16;;;;;;;12.27;4.17;;;;;;;19.75;74.46;99752.19;5095108;28;20245;-85
2022/07/26 06:35:41;;;;;;;15.57;5.20;;;;;;;19.78;74.18;99757.06;5094928;28;20332;-87
2022/07/26 06:38:07;;;;;;;37.22;8.30;;;;;;;19.75;73.59;99756.94;5094452;28;20051;-86
2022/07/26 06:40:33;;;;;;;15.45;5.40;;;;;;;19.81;74.12;99761.16;5094839;28;20028;-86
2022/07/26 06:43:00;;;;;;;17.80;5.82;;;;;;;19.88;73.20;99755.91;5094790;28;20106;-86
2022/07/26 06:45:25;;;;;;;17.35;4.68;;;;;;;19.83;73.47;99764.41;5095136;28;20032;-86
2022/07/26 06:47:51;;;;;;;13.63;5.15;;;;;;;19.94;73.09;99760.13;5094547;28;20350;-86
2022/07/26 06:50:16;;;;;;;25.27;6.57;;;;;;;19.86;73.66;99760.97;5095290;28;20027;-86
2022/07/26 06:52:42;;;;;;;16.05;6.30;;;;;;;19.91;73.28;99766.31;5094726;28;20110;-87
2022/07/26 06:55:08;;;;;;;14.60;8.32;;;;;;;19.97;73.67;99771.69;5094481;28;20036;-89
2022/07/26 06:57:34;;;;;;;20.58;7.38;;;;;;;19.90;73.09;99764.69;5094898;28;20016;-87
2022/07/26 07:00:00;;;;;;;13.10;7.43;;;;;;;19.95;73.19;99772.03;5094797;28;20115;-87
2022/07/26 07:02:25;;;;;;;16.08;7.68;;;;;;;19.92;73.60;99762.41;5094716;28;20063;-87
2022/07/26 07:04:51;;;;;;;15.52;8.32;;;;;;;19.94;73.27;99765.66;5095204;28;20039;-87
2022/07/26 07:07:16;;;;;;;23.00;9.27;;;;;;;19.98;73.09;99767.75;5094380;28;20027;-86
2022/07/26 07:09:41;;;;;;;15.88;8.70;;;;;;;20.01;72.79;99769.88;5094436;28;20028;-86
2022/07/26 07:12:07;;;;;;;16.70;7.80;;;;;;;20.07;73.62;99771.34;5094175;28;20052;-87
2022/07/26 07:14:32;;;;;;;19.27;8.27;;;;;;;20.20;72.87;99768.75;5094874;28;20024;-86
2022/07/26 07:16:58;;;;;;;29.05;9.70;;;;;;;20.30;73.23;99782.19;5091880;28;20024;-80
2022/07/26 07:19:24;;;;;;;14.88;8.80;;;;;;;20.44;72.96;99770.13;5093848;28;20020;-81
2022/07/26 07:21:50;;;;;;;17.25;8.40;;;;;;;20.53;72.04;99774.47;5094100;28;20028;-87
2022/07/26 07:24:16;;;;;;;22.83;8.57;;;;;;;20.52;72.97;99783.13;5095060;28;20027;-87
2022/07/26 07:26:41;;;;;;;19.48;9.25;;;;;;;20.62;71.91;99785.50;5088369;28;20035;-83
2022/07/26 07:29:11;;;;;;;19.48;8.63;;;;;;;20.67;71.79;99789.22;5084365;28;20032;-83
2022/07/26 07:31:37;;;;;;;17.05;9.07;;;;;;;20.66;70.52;99796.75;5085410;28;20028;-83
2022/07/26 07:34:02;;;;;;;16.73;7.28;;;;;;;20.64;71.30;99799.81;5076707;28;20035;-83
2022/07/26 07:36:27;;;;;;;17.40;8.27;;;;;;;20.70;71.10;99800.47;5065858;28;20130;-84
2022/07/26 07:38:53;;;;;;;13.68;7.68;;;;;;;20.75;70.98;99807.75;5066876;28;20028;-85
2022/07/26 07:41:18;;;;;;;25.23;9.27;;;;;;;20.77;71.24;99806.28;5083368;28;20043;-85
2022/07/26 07:43:43;;;;;;;18.77;9.77;;;;;;;20.81;69.91;99811.97;5084423;28;20748;-84
2022/07/26 07:46:09;;;;;;;14.67;8.43;;;;;;;20.85;70.65;99812.91;5077589;28;20346;-85
2022/07/26 07:48:36;;;;;;;15.43;8.55;;;;;;;20.85;70.98;99818.47;5065604;28;20675;-82
2022/07/26 07:51:01;;;;;;;19.00;9.20;;;;;;;20.93;70.31;99818.78;5085861;28;20031;-81
2022/07/26 07:53:26;;;;;;;18.23;9.17;;;;;;;20.95;68.87;99814.50;5088304;28;20024;-83
2022/07/26 07:55:52;;;;;;;19.53;8.70;;;;;;;20.92;70.11;99806.88;5089466;28;20252;-85
2022/07/26 07:58:18;;;;;;;14.90;8.07;;;;;;;21.22;70.02;99808.81;5089114;28;20381;-84
2022/07/26 08:00:44;;;;;;;12.60;7.30;;;;;;;21.39;69.00;99807.09;5087739;28;20264;-84
2022/07/26 08:03:09;;;;;;;16.85;7.25;;;;;;;21.25;68.20;99805.41;5088843;28;20027;-80
2022/07/26 08:05:35;;;;;;;14.73;8.23;;;;;;;20.83;68.71;99814.38;5094865;28;20039;-87
2022/07/26 08:08:02;;;;;;;17.50;8.57;;;;;;;20.66;68.78;99810.59;5092224;28;20025;-86
2022/07/26 08:10:28;;;;;;;13.68;8.45;;;;;;;20.64;69.89;99819.19;5076817;28;20350;-82
2022/07/26 08:12:53;;;;;;;12.80;7.50;;;;;;;20.88;69.72;99817.81;5068531;28;20428;-83
2022/07/26 08:15:18;;;;;;;17.80;9.67;;;;;;;21.03;68.72;99810.06;5074389;28;20032;-81
2022/07/26 08:17:44;;;;;;;16.67;9.35;;;;;;;21.14;68.01;99809.69;5089372;28;20020;-85
2022/07/26 08:20:09;;;;;;;15.47;7.60;;;;;;;21.11;67.69;99802.88;5078886;28;20347;-83
2022/07/26 08:22:35;;;;;;;18.17;8.40;;;;;;;21.23;67.66;99800.16;5068670;28;20374;-83
2022/07/26 08:25:00;;;;;;;13.07;7.38;;;;;;;21.17;66.65;99801.53;5068681;28;20573;-84
2022/07/26 08:27:25;;;;;;;18.70;9.07;;;;;;;21.08;66.95;99807.13;5068708;28;20028;-83
2022/07/26 08:29:50;;;;;;;18.58;8.10;;;;;;;21.23;66.81;99807.69;5078312;28;20032;-83
2022/07/26 08:32:16;;;;;;;15.70;9.03;;;;;;;21.49;65.60;99806.69;5088852;28;20039;-85
2022/07/26 08:34:41;;;;;;;18.23;10.53;;;;;;;21.50;65.68;99808.28;5088445;28;20249;-83
2022/07/26 08:37:07;;;;;;;19.33;9.70;;;;;;;21.46;65.27;99810.94;5088492;28;20257;-84
2022/07/26 08:39:32;;;;;;;13.00;7.43;;;;;;;21.63;65.02;99806.41;5088256;28;20244;-83
2022/07/26 08:41:58;;;;;;;18.03;8.80;;;;;;;21.84;64.03;99807.56;5088751;28;20035;-83
2022/07/26 08:44:25;;;;;;;16.05;8.38;;;;;;;21.99;63.03;99806.09;5090027;28;20260;-87
2022/07/26 08:46:50;;;;;;;13.27;8.10;;;;;;;22.03;63.69;99813.41;5097445;28;20027;-87
2022/07/26 08:49:16;;;;;;;12.67;7.93;;;;;;;22.35;61.63;99809.34;5086422;28;20030;-84
2022/07/26 08:51:42;;;;;;;12.73;8.03;;;;;;;22.60;61.12;99812.94;5088268;28;20273;-83
2022/07/26 08:54:12;;;;;;;12.60;7.60;;;;;;;22.56;60.41;99805.63;5088608;28;20253;-82
2022/07/26 08:56:49;;;;;;;11.32;7.57;;;;;;;22.77;60.29;99810.31;5088544;28;20035;-83
2022/07/26 08:59:17;;;;;;;12.82;6.63;;;;;;;22.59;60.78;99810.53;5086066;28;20032;-84
2022/07/26 09:01:55;;;;;;;12.98;6.22;;;;;;;22.36;61.05;99814.53;5087750;28;20034;-84
2022/07/26 09:04:26;;;;;;;11.82;6.22;;;;;;;22.40;60.84;99817.44;5086372;28;20024;-84
2022/07/26 09:07:08;;;;;;;10.80;5.45;;;;;;;22.55;60.79;99815.97;5088750;28;20028;-83
2022/07/26 09:09:54;;;;;;;9.48;5.65;;;;;;;22.52;60.24;99811.09;5084790;28;20404;-84
2022/07/26 09:12:20;;;;;;;9.68;5.65;;;;;;;22.58;59.78;99814.44;5069208;28;20055;-84
2022/07/26 09:14:46;;;;;;;10.80;4.80;;;;;;;22.61;59.79;99820.13;5069696;28;20032;-84
2022/07/26 09:17:12;;;;;;;15.77;5.07;;;;;;;22.41;58.77;99816.28;5087412;28;20525;-82
2022/07/26 09:19:37;;;;;;;9.48;5.90;;;;;;;21.94;59.15;99818.25;5082416;28;20040;-84
2022/07/26 09:22:11;;;;;;;10.57;5.70;;;;;;;21.81;60.11;99829.25;5067626;28;20032;-83
2022/07/26 09:24:45;;;;;;;14.38;6.75;;;;;;;21.95;60.66;99828.19;5067955;28;20033;-81
2022/07/26 09:27:13;;;;;;;10.95;5.82;;;;;;;21.99;60.51;99829.13;5066978;28;20029;-82
2022/07/26 09:29:47;;;;;;;17.20;6.82;;;;;;;21.75;60.68;99829.81;5074263;28;20035;-85
2022/07/26 09:32:17;;;;;;;9.55;5.72;;;;;;;21.78;61.43;99840.22;5087602;28;20028;-85
2022/07/26 09:34:48;;;;;;;10.27;6.32;;;;;;;21.93;61.59;99841.59;5087773;28;20109;-85
2022/07/26 09:37:15;;;;;;;9.55;5.68;;;;;;;22.03;60.50;99845.91;5087470;28;20020;-79
2022/07/26 09:39:54;;;;;;;9.82;4.97;;;;;;;22.03;60.44;99841.16;5087497;28;20015;-82
2022/07/26 09:42:22;;;;;;;12.15;5.10;;;;;;;22.27;58.93;99845.16;5087402;28;20027;-83
2022/07/26 09:44:47;;;;;;;8.48;4.57;;;;;;;22.73;57.88;99844.38;5087409;28;20024;-83
2022/07/26 09:47:13;;;;;;;7.90;4.20;;;;;;;22.83;56.58;99847.84;5070994;28;20025;-84
2022/07/26 09:49:40;;;;;;;8.23;4.85;;;;;;;22.65;57.26;99842.50;5074197;28;20108;-84
2022/07/26 09:52:21;;;;;;;8.93;4.78;;;;;;;22.55;58.10;99849.28;5086740;28;20028;-85
2022/07/26 09:54:48;;;;;;;13.98;5.18;;;;;;;22.21;59.15;99848.53;5087263;28;20028;-84
2022/07/26 09:57:18;;;;;;;13.85;4.97;;;;;;;22.24;60.15;99856.16;5087025;28;20031;-82
2022/07/26 09:59:45;;;;;;;9.80;4.63;;;;;;;22.01;60.16;99853.75;5086878;28;20035;-83
2022/07/26 10:02:12;;;;;;;13.75;4.93;;;;;;;22.00;60.46;99855.75;5086752;28;20024;-85
2022/07/26 10:04:41;;;;;;;9.70;4.43;;;;;;;22.01;59.60;99854.56;5086703;28;20054;-84
2022/07/26 10:07:07;;;;;;;11.55;5.10;;;;;;;22.04;59.64;99856.69;5087040;28;20027;-81
2022/07/26 10:09:47;;;;;;;13.63;5.13;;;;;;;22.15;59.04;99853.47;5086616;28;20032;-85
2022/07/26 10:12:15;;;;;;;11.38;4.63;;;;;;;22.26;58.66;99854.66;5086354;28;20044;-83
2022/07/26 10:14:45;;;;;;;9.68;4.95;;;;;;;22.60;57.06;99856.56;5086915;28;20032;-83
2022/07/26 10:17:25;;;;;;;13.10;5.85;;;;;;;22.90;55.02;99850.88;5086377;28;20135;-83
2022/07/26 10:19:54;;;;;;;9.38;5.55;;;;;;;23.14;53.66;99857.56;5085428;28;20043;-84
2022/07/26 10:22:29;;;;;;;13.40;6.00;;;;;;;23.77;52.79;99854.69;5087068;28;20028;-83
2022/07/26 10:24:57;;;;;;;7.40;4.65;;;;;;;23.90;52.70;99855.44;5086917;28;20103;-83
2022/07/26 10:27:36;;;;;;;10.75;5.70;;;;;;;23.88;52.90;99855.78;5086655;28;20028;-83
2022/07/26 10:30:16;;;;;;;10.32;5.10;;;;;;;23.79;52.76;99855.97;5085457;28;20032;-85
2022/07/26 10:32:58;;;;;;;8.60;5.20;;;;;;;23.65;53.15;99848.00;5086564;28;20106;-81
2022/07/26 10:35:39;;;;;;;10.30;5.65;;;;;;;23.75;53.39;99848.66;5086522;28;20040;-83
2022/07/26 10:38:06;;;;;;;11.13;5.82;;;;;;;23.73;53.89;99853.78;5086716;28;20089;-83
2022/07/26 10:40:32;;;;;;;12.70;6.80;;;;;;;23.39;54.45;99860.31;5085343;28;20609;-83
2022/07/26 10:43:08;;;;;;;7.32;5.97;;;;;;;23.20;54.62;99855.38;5086665;28;20061;-83
2022/07/26 10:45:34;;;;;;;13.98;6.57;;;;;;;22.97;54.85;99851.09;5084467;28;20493;-85
2022/07/26 10:48:17;;;;;;;11.55;6.50;;;;;;;22.96;54.92;99857.78;5066139;28;20056;-82
2022/07/26 10:50:47;;;;;;;7.80;6.50;;;;;;;22.90;55.54;99864.75;5081376;28;20035;-82
2022/07/26 10:53:26;;;;;;;11.23;6.15;;;;;;;22.91;55.02;99866.38;5081707;28;20413;-85
2022/07/26 10:55:53;;;;;;;9.85;7.05;;;;;;;22.77;55.15;99865.88;5077584;28;20032;-84
2022/07/26 10:58:20;;;;;;;15.77;6.55;;;;;;;22.71;55.74;99879.19;5070110;28;20085;-81
2022/07/26 11:00:58;;;;;;;7.82;4.13;;;;;;;22.28;57.47;99885.69;5085087;28;20039;-85
2022/07/26 11:03:24;;;;;;;7.10;3.92;;;;;;;22.06;58.90;99894.38;5075009;28;20028;-84
2022/07/26 11:05:50;;;;;;;7.93;3.63;;;;;;;21.85;59.44;99896.00;5066085;28;20036;-85
2022/07/26 11:08:15;;;;;;;6.80;4.30;;;;;;;21.65;60.54;99897.59;5066165;28;20347;-83
2022/07/26 11:10:44;;;;;;;7.15;4.63;;;;;;;21.08;62.08;99906.91;5067464;28;20123;-85
2022/07/26 11:13:18;;;;;;;5.78;3.90;;;;;;;21.38;61.47;99899.75;5065562;28;20037;-82
2022/07/26 11:15:50;;;;;;;9.43;3.88;;;;;;;21.37;63.09;99904.47;5075336;28;20032;-84
2022/07/26 11:18:16;;;;;;;6.45;4.38;;;;;;;21.36;63.58;99918.69;5085201;28;20032;-84
2022/07/26 11:20:45;;;;;;;12.30;4.65;;;;;;;21.42;62.69;99917.31;5084699;28;20059;-83
2022/07/26 11:23:27;;;;;;;9.23;4.32;;;;;;;21.63;62.73;99922.09;5087205;28;20055;-85
2022/07/26 11:26:04;;;;;;;10.18;4.43;;;;;;;21.55;61.72;99923.75;5090433;28;20449;-85
2022/07/26 11:28:41;;;;;;;7.70;4.55;;;;;;;21.51;62.63;99926.41;5090152;28;20028;-84
2022/07/26 11:31:06;;;;;;;9.23;4.88;;;;;;;21.36;62.83;99924.22;5089247;28;20346;-83
2022/07/26 11:33:36;;;;;;;8.47;4.73;;;;;;;21.40;62.69;99919.63;5089966;28;20035;-86
2022/07/26 11:36:03;;;;;;;11.93;4.00;;;;;;;21.60;61.48;99926.34;5090512;28;20506;-83